sensor_id;sensor_type;location;lat;lon;timestamp;temperature;humidity
37806;DHT22;25082;50.870;0.022;2023-03-23T00:01:13;19.40;63.70
37806;DHT22;25082;50.870;0.022;2023-03-23T00:03:39;19.30;63.60
37806;DHT22;25082;50.870;0.022;2023-03-23T00:06:06;19.30;63.60
37806;DHT22;25082;50.870;0.022;2023-03-23T00:08:34;19.30;63.60
37806;DHT22;25082;50.870;0.022;2023-03-23T00:11:03;19.30;63.60
37806;DHT22;25082;50.870;0.022;2023-03-23T00:13:29;19.30;63.60
37806;DHT22;25082;50.870;0.022;2023-03-23T00:15:55;19.30;63.50
37806;DHT22;25082;50.870;0.022;2023-03-23T00:18:23;19.30;63.60
37806;DHT22;25082;50.870;0.022;2023-03-23T00:20:49;19.30;63.50
37806;DHT22;25082;50.870;0.022;2023-03-23T00:23:16;19.30;63.50
37806;DHT22;25082;50.870;0.022;2023-03-23T00:25:50;19.30;63.50
37806;DHT22;25082;50.870;0.022;2023-03-23T00:28:19;19.30;63.60
37806;DHT22;25082;50.870;0.022;2023-03-23T00:30:57;19.30;63.50
37806;DHT22;25082;50.870;0.022;2023-03-23T00:33:26;19.20;63.40
37806;DHT22;25082;50.870;0.022;2023-03-23T00:35:52;19.20;63.40
37806;DHT22;25082;50.870;0.022;2023-03-23T00:38:23;19.20;63.40
37806;DHT22;25082;50.870;0.022;2023-03-23T00:40:49;19.20;63.20
37806;DHT22;25082;50.870;0.022;2023-03-23T00:43:17;19.20;63.20
37806;DHT22;25082;50.870;0.022;2023-03-23T00:45:43;19.20;63.10
37806;DHT22;25082;50.870;0.022;2023-03-23T00:48:11;19.20;63.10
37806;DHT22;25082;50.870;0.022;2023-03-23T00:50:38;19.20;63.10
37806;DHT22;25082;50.870;0.022;2023-03-23T00:53:05;19.20;63.10
37806;DHT22;25082;50.870;0.022;2023-03-23T00:55:30;19.20;63.00
37806;DHT22;25082;50.870;0.022;2023-03-23T00:57:56;19.20;63.00
37806;DHT22;25082;50.870;0.022;2023-03-23T01:00:22;19.10;63.00
37806;DHT22;25082;50.870;0.022;2023-03-23T01:02:48;19.10;63.00
37806;DHT22;25082;50.870;0.022;2023-03-23T01:05:17;19.10;63.10
37806;DHT22;25082;50.870;0.022;2023-03-23T01:07:43;19.10;63.10
37806;DHT22;25082;50.870;0.022;2023-03-23T01:10:10;19.10;63.00
37806;DHT22;25082;50.870;0.022;2023-03-23T01:12:39;19.10;62.90
37806;DHT22;25082;50.870;0.022;2023-03-23T01:15:05;19.10;62.90
37806;DHT22;25082;50.870;0.022;2023-03-23T01:17:31;19.10;62.90
37806;DHT22;25082;50.870;0.022;2023-03-23T01:19:57;19.00;62.80
37806;DHT22;25082;50.870;0.022;2023-03-23T01:22:23;19.10;62.90
37806;DHT22;25082;50.870;0.022;2023-03-23T01:24:49;19.10;62.90
37806;DHT22;25082;50.870;0.022;2023-03-23T01:27:15;19.00;62.70
37806;DHT22;25082;50.870;0.022;2023-03-23T01:29:40;19.10;62.80
37806;DHT22;25082;50.870;0.022;2023-03-23T01:32:06;19.00;62.70
37806;DHT22;25082;50.870;0.022;2023-03-23T01:34:32;19.10;62.70
37806;DHT22;25082;50.870;0.022;2023-03-23T01:36:57;19.10;62.70
37806;DHT22;25082;50.870;0.022;2023-03-23T01:39:23;19.00;62.70
37806;DHT22;25082;50.870;0.022;2023-03-23T01:41:49;19.00;62.70
37806;DHT22;25082;50.870;0.022;2023-03-23T01:46:44;19.00;62.60
37806;DHT22;25082;50.870;0.022;2023-03-23T01:49:21;19.00;62.60
37806;DHT22;25082;50.870;0.022;2023-03-23T01:51:51;19.00;62.60
37806;DHT22;25082;50.870;0.022;2023-03-23T01:54:20;19.00;62.60
37806;DHT22;25082;50.870;0.022;2023-03-23T01:57:10;19.00;62.60
37806;DHT22;25082;50.870;0.022;2023-03-23T01:59:35;19.00;62.60
37806;DHT22;25082;50.870;0.022;2023-03-23T02:02:02;18.90;62.60
37806;DHT22;25082;50.870;0.022;2023-03-23T02:04:29;18.90;62.60
37806;DHT22;25082;50.870;0.022;2023-03-23T02:06:56;18.90;62.60
37806;DHT22;25082;50.870;0.022;2023-03-23T02:09:25;18.90;62.60
37806;DHT22;25082;50.870;0.022;2023-03-23T02:11:51;18.90;62.60
37806;DHT22;25082;50.870;0.022;2023-03-23T02:14:19;18.90;62.60
37806;DHT22;25082;50.870;0.022;2023-03-23T02:35:17;18.90;62.60
37806;DHT22;25082;50.870;0.022;2023-03-23T02:37:50;18.80;62.60
37806;DHT22;25082;50.870;0.022;2023-03-23T02:40:21;18.80;62.60
37806;DHT22;25082;50.870;0.022;2023-03-23T02:42:51;18.80;62.60
37806;DHT22;25082;50.870;0.022;2023-03-23T02:45:19;18.80;62.60
37806;DHT22;25082;50.870;0.022;2023-03-23T02:47:49;18.80;62.60
37806;DHT22;25082;50.870;0.022;2023-03-23T02:50:16;18.80;62.60
37806;DHT22;25082;50.870;0.022;2023-03-23T02:52:46;18.80;62.60
37806;DHT22;25082;50.870;0.022;2023-03-23T02:55:12;18.80;62.60
37806;DHT22;25082;50.870;0.022;2023-03-23T02:57:39;18.80;62.60
37806;DHT22;25082;50.870;0.022;2023-03-23T03:00:07;18.80;62.70
37806;DHT22;25082;50.870;0.022;2023-03-23T03:02:38;18.80;63.20
37806;DHT22;25082;50.870;0.022;2023-03-23T03:08:09;18.70;62.60
37806;DHT22;25082;50.870;0.022;2023-03-23T03:16:06;18.70;62.60
37806;DHT22;25082;50.870;0.022;2023-03-23T03:21:02;18.70;62.60
37806;DHT22;25082;50.870;0.022;2023-03-23T03:23:30;18.70;62.60
37806;DHT22;25082;50.870;0.022;2023-03-23T03:25:58;18.70;62.60
37806;DHT22;25082;50.870;0.022;2023-03-23T03:28:25;18.70;62.60
37806;DHT22;25082;50.870;0.022;2023-03-23T03:30:57;18.70;62.60
37806;DHT22;25082;50.870;0.022;2023-03-23T03:33:27;18.70;62.60
37806;DHT22;25082;50.870;0.022;2023-03-23T03:35:57;18.60;62.50
37806;DHT22;25082;50.870;0.022;2023-03-23T03:38:24;18.60;62.60
37806;DHT22;25082;50.870;0.022;2023-03-23T03:40:50;18.70;62.60
37806;DHT22;25082;50.870;0.022;2023-03-23T03:43:17;18.60;62.50
37806;DHT22;25082;50.870;0.022;2023-03-23T03:45:42;18.60;62.50
37806;DHT22;25082;50.870;0.022;2023-03-23T03:48:10;18.60;62.50
37806;DHT22;25082;50.870;0.022;2023-03-23T03:50:36;18.60;62.50
37806;DHT22;25082;50.870;0.022;2023-03-23T03:53:02;18.60;62.50
37806;DHT22;25082;50.870;0.022;2023-03-23T03:55:28;18.60;62.50
37806;DHT22;25082;50.870;0.022;2023-03-23T03:57:55;18.60;62.50
37806;DHT22;25082;50.870;0.022;2023-03-23T04:00:21;18.60;62.50
37806;DHT22;25082;50.870;0.022;2023-03-23T04:02:49;18.60;62.50
37806;DHT22;25082;50.870;0.022;2023-03-23T04:05:23;18.60;62.50
37806;DHT22;25082;50.870;0.022;2023-03-23T04:07:50;18.60;62.50
37806;DHT22;25082;50.870;0.022;2023-03-23T04:10:18;18.50;62.40
37806;DHT22;25082;50.870;0.022;2023-03-23T04:12:47;18.60;62.50
37806;DHT22;25082;50.870;0.022;2023-03-23T04:15:13;18.50;62.40
37806;DHT22;25082;50.870;0.022;2023-03-23T04:17:39;18.50;62.40
37806;DHT22;25082;50.870;0.022;2023-03-23T04:20:07;18.50;62.40
37806;DHT22;25082;50.870;0.022;2023-03-23T04:22:46;18.50;62.40
37806;DHT22;25082;50.870;0.022;2023-03-23T04:25:15;18.50;62.40
37806;DHT22;25082;50.870;0.022;2023-03-23T04:27:43;18.50;62.40
37806;DHT22;25082;50.870;0.022;2023-03-23T04:30:10;18.50;62.40
37806;DHT22;25082;50.870;0.022;2023-03-23T04:32:38;18.50;62.40
37806;DHT22;25082;50.870;0.022;2023-03-23T04:35:06;18.50;62.40
37806;DHT22;25082;50.870;0.022;2023-03-23T04:37:32;18.50;62.40
37806;DHT22;25082;50.870;0.022;2023-03-23T04:39:58;18.50;62.40
37806;DHT22;25082;50.870;0.022;2023-03-23T04:42:31;18.40;63.00
37806;DHT22;25082;50.870;0.022;2023-03-23T04:44:58;18.50;62.40
37806;DHT22;25082;50.870;0.022;2023-03-23T04:47:25;18.40;62.40
37806;DHT22;25082;50.870;0.022;2023-03-23T04:49:57;18.50;62.40
37806;DHT22;25082;50.870;0.022;2023-03-23T04:52:26;18.40;62.40
37806;DHT22;25082;50.870;0.022;2023-03-23T04:54:54;18.40;62.40
37806;DHT22;25082;50.870;0.022;2023-03-23T04:57:22;18.50;62.50
37806;DHT22;25082;50.870;0.022;2023-03-23T04:59:48;18.40;62.40
37806;DHT22;25082;50.870;0.022;2023-03-23T05:02:14;18.40;62.40
37806;DHT22;25082;50.870;0.022;2023-03-23T05:04:40;18.40;62.40
37806;DHT22;25082;50.870;0.022;2023-03-23T05:07:07;18.40;62.40
37806;DHT22;25082;50.870;0.022;2023-03-23T05:09:33;18.40;62.40
37806;DHT22;25082;50.870;0.022;2023-03-23T05:12:09;18.40;62.40
37806;DHT22;25082;50.870;0.022;2023-03-23T05:14:35;18.40;62.40
37806;DHT22;25082;50.870;0.022;2023-03-23T05:17:06;18.40;62.40
37806;DHT22;25082;50.870;0.022;2023-03-23T05:19:32;18.40;62.40
37806;DHT22;25082;50.870;0.022;2023-03-23T05:21:58;18.30;62.30
37806;DHT22;25082;50.870;0.022;2023-03-23T05:24:32;18.40;62.40
37806;DHT22;25082;50.870;0.022;2023-03-23T05:26:59;18.30;62.40
37806;DHT22;25082;50.870;0.022;2023-03-23T05:29:25;18.40;62.40
37806;DHT22;25082;50.870;0.022;2023-03-23T05:31:51;18.40;62.40
37806;DHT22;25082;50.870;0.022;2023-03-23T05:34:19;18.40;62.40
37806;DHT22;25082;50.870;0.022;2023-03-23T05:36:45;18.40;62.40
37806;DHT22;25082;50.870;0.022;2023-03-23T05:39:12;18.30;62.40
37806;DHT22;25082;50.870;0.022;2023-03-23T05:41:39;18.30;62.30
37806;DHT22;25082;50.870;0.022;2023-03-23T05:44:04;18.30;62.40
37806;DHT22;25082;50.870;0.022;2023-03-23T05:46:30;18.30;62.40
37806;DHT22;25082;50.870;0.022;2023-03-23T05:48:58;18.30;62.40
37806;DHT22;25082;50.870;0.022;2023-03-23T05:51:27;18.30;62.30
37806;DHT22;25082;50.870;0.022;2023-03-23T05:53:52;18.30;62.40
37806;DHT22;25082;50.870;0.022;2023-03-23T05:56:18;18.30;62.30
37806;DHT22;25082;50.870;0.022;2023-03-23T05:58:44;18.30;62.40
37806;DHT22;25082;50.870;0.022;2023-03-23T06:01:10;18.30;62.40
37806;DHT22;25082;50.870;0.022;2023-03-23T06:03:39;18.30;62.40
37806;DHT22;25082;50.870;0.022;2023-03-23T06:06:05;18.20;62.30
37806;DHT22;25082;50.870;0.022;2023-03-23T06:08:31;18.20;62.30
37806;DHT22;25082;50.870;0.022;2023-03-23T06:10:57;18.30;62.40
37806;DHT22;25082;50.870;0.022;2023-03-23T06:13:23;18.30;62.40
37806;DHT22;25082;50.870;0.022;2023-03-23T06:15:49;18.20;62.40
37806;DHT22;25082;50.870;0.022;2023-03-23T06:18:16;18.20;62.40
37806;DHT22;25082;50.870;0.022;2023-03-23T06:20:41;18.20;62.40
37806;DHT22;25082;50.870;0.022;2023-03-23T06:23:09;18.20;62.30
37806;DHT22;25082;50.870;0.022;2023-03-23T06:25:35;18.20;62.40
37806;DHT22;25082;50.870;0.022;2023-03-23T06:28:01;18.20;62.40
37806;DHT22;25082;50.870;0.022;2023-03-23T06:30:26;18.20;62.40
37806;DHT22;25082;50.870;0.022;2023-03-23T06:32:53;18.20;62.40
37806;DHT22;25082;50.870;0.022;2023-03-23T06:35:19;18.20;62.40
37806;DHT22;25082;50.870;0.022;2023-03-23T06:37:45;18.20;62.40
37806;DHT22;25082;50.870;0.022;2023-03-23T06:40:11;18.20;62.40
37806;DHT22;25082;50.870;0.022;2023-03-23T06:42:37;18.20;62.40
37806;DHT22;25082;50.870;0.022;2023-03-23T06:45:04;18.20;62.40
37806;DHT22;25082;50.870;0.022;2023-03-23T06:47:30;18.20;62.40
37806;DHT22;25082;50.870;0.022;2023-03-23T06:49:57;18.20;62.40
37806;DHT22;25082;50.870;0.022;2023-03-23T06:52:24;18.20;62.40
37806;DHT22;25082;50.870;0.022;2023-03-23T06:54:50;18.10;62.40
37806;DHT22;25082;50.870;0.022;2023-03-23T06:57:16;18.10;62.40
37806;DHT22;25082;50.870;0.022;2023-03-23T06:59:43;18.10;62.40
37806;DHT22;25082;50.870;0.022;2023-03-23T07:02:12;18.10;62.40
37806;DHT22;25082;50.870;0.022;2023-03-23T07:04:41;18.10;62.40
37806;DHT22;25082;50.870;0.022;2023-03-23T07:07:08;18.10;62.40
37806;DHT22;25082;50.870;0.022;2023-03-23T07:09:34;18.20;62.40
37806;DHT22;25082;50.870;0.022;2023-03-23T07:12:00;18.20;62.30
37806;DHT22;25082;50.870;0.022;2023-03-23T07:14:26;18.20;62.40
37806;DHT22;25082;50.870;0.022;2023-03-23T07:16:52;18.20;62.30
37806;DHT22;25082;50.870;0.022;2023-03-23T07:19:19;18.20;62.30
37806;DHT22;25082;50.870;0.022;2023-03-23T07:21:44;18.30;62.40
37806;DHT22;25082;50.870;0.022;2023-03-23T07:24:12;18.30;62.40
37806;DHT22;25082;50.870;0.022;2023-03-23T07:26:40;18.30;62.40
37806;DHT22;25082;50.870;0.022;2023-03-23T07:29:08;18.40;62.50
37806;DHT22;25082;50.870;0.022;2023-03-23T07:31:34;18.30;62.40
37806;DHT22;25082;50.870;0.022;2023-03-23T07:34:00;18.40;62.50
37806;DHT22;25082;50.870;0.022;2023-03-23T07:36:26;18.40;62.50
37806;DHT22;25082;50.870;0.022;2023-03-23T07:38:52;18.40;62.60
37806;DHT22;25082;50.870;0.022;2023-03-23T07:41:18;18.40;62.60
37806;DHT22;25082;50.870;0.022;2023-03-23T07:43:45;18.40;62.60
37806;DHT22;25082;50.870;0.022;2023-03-23T07:46:12;18.50;62.60
37806;DHT22;25082;50.870;0.022;2023-03-23T07:48:38;18.50;62.70
37806;DHT22;25082;50.870;0.022;2023-03-23T07:51:05;18.40;62.60
37806;DHT22;25082;50.870;0.022;2023-03-23T07:53:30;18.50;62.70
37806;DHT22;25082;50.870;0.022;2023-03-23T07:55:56;18.50;62.80
37806;DHT22;25082;50.870;0.022;2023-03-23T07:58:22;18.50;62.80
37806;DHT22;25082;50.870;0.022;2023-03-23T08:00:48;18.50;62.80
37806;DHT22;25082;50.870;0.022;2023-03-23T08:03:15;18.50;62.80
37806;DHT22;25082;50.870;0.022;2023-03-23T08:05:41;18.50;62.90
37806;DHT22;25082;50.870;0.022;2023-03-23T08:08:08;18.50;62.90
37806;DHT22;25082;50.870;0.022;2023-03-23T08:10:35;18.60;63.00
37806;DHT22;25082;50.870;0.022;2023-03-23T08:13:01;18.60;63.00
37806;DHT22;25082;50.870;0.022;2023-03-23T08:15:27;18.60;63.00
37806;DHT22;25082;50.870;0.022;2023-03-23T08:17:54;18.60;63.00
37806;DHT22;25082;50.870;0.022;2023-03-23T08:20:21;18.60;63.00
37806;DHT22;25082;50.870;0.022;2023-03-23T08:22:55;18.60;63.00
37806;DHT22;25082;50.870;0.022;2023-03-23T08:25:23;18.70;63.00
37806;DHT22;25082;50.870;0.022;2023-03-23T08:27:50;18.60;63.00
37806;DHT22;25082;50.870;0.022;2023-03-23T08:30:18;18.70;63.10
37806;DHT22;25082;50.870;0.022;2023-03-23T08:32:45;18.60;63.00
37806;DHT22;25082;50.870;0.022;2023-03-23T08:35:13;18.60;63.00
37806;DHT22;25082;50.870;0.022;2023-03-23T08:37:40;18.70;63.10
37806;DHT22;25082;50.870;0.022;2023-03-23T08:40:10;18.70;63.10
37806;DHT22;25082;50.870;0.022;2023-03-23T08:42:41;18.70;63.10
37806;DHT22;25082;50.870;0.022;2023-03-23T08:45:10;18.70;63.70
37806;DHT22;25082;50.870;0.022;2023-03-23T08:47:36;18.70;63.30
37806;DHT22;25082;50.870;0.022;2023-03-23T08:50:04;18.70;63.30
37806;DHT22;25082;50.870;0.022;2023-03-23T08:52:30;18.70;63.30
37806;DHT22;25082;50.870;0.022;2023-03-23T08:54:57;18.80;63.40
37806;DHT22;25082;50.870;0.022;2023-03-23T08:57:23;18.80;63.30
37806;DHT22;25082;50.870;0.022;2023-03-23T08:59:50;18.80;63.30
37806;DHT22;25082;50.870;0.022;2023-03-23T09:02:17;18.80;63.30
37806;DHT22;25082;50.870;0.022;2023-03-23T09:04:43;18.80;63.30
37806;DHT22;25082;50.870;0.022;2023-03-23T09:07:12;18.80;63.20
37806;DHT22;25082;50.870;0.022;2023-03-23T09:09:40;18.80;63.20
37806;DHT22;25082;50.870;0.022;2023-03-23T09:12:07;18.90;63.40
37806;DHT22;25082;50.870;0.022;2023-03-23T09:14:34;18.90;63.40
37806;DHT22;25082;50.870;0.022;2023-03-23T09:17:01;18.90;63.70
37806;DHT22;25082;50.870;0.022;2023-03-23T09:19:28;18.90;63.90
37806;DHT22;25082;50.870;0.022;2023-03-23T09:21:54;18.90;64.00
37806;DHT22;25082;50.870;0.022;2023-03-23T09:24:20;18.90;64.30
37806;DHT22;25082;50.870;0.022;2023-03-23T09:26:46;19.00;64.50
37806;DHT22;25082;50.870;0.022;2023-03-23T09:29:12;19.00;64.60
37806;DHT22;25082;50.870;0.022;2023-03-23T09:31:39;19.00;64.80
37806;DHT22;25082;50.870;0.022;2023-03-23T09:34:07;19.00;64.90
37806;DHT22;25082;50.870;0.022;2023-03-23T09:36:36;19.10;64.90
37806;DHT22;25082;50.870;0.022;2023-03-23T09:39:01;19.10;64.80
37806;DHT22;25082;50.870;0.022;2023-03-23T09:47:30;19.10;64.80
37806;DHT22;25082;50.870;0.022;2023-03-23T09:55:16;19.10;65.20
37806;DHT22;25082;50.870;0.022;2023-03-23T09:57:48;19.10;65.10
37806;DHT22;25082;50.870;0.022;2023-03-23T10:00:17;19.10;65.30
37806;DHT22;25082;50.870;0.022;2023-03-23T10:05:37;19.10;65.30
37806;DHT22;25082;50.870;0.022;2023-03-23T10:08:19;19.10;65.10
37806;DHT22;25082;50.870;0.022;2023-03-23T10:13:54;19.10;65.10
37806;DHT22;25082;50.870;0.022;2023-03-23T10:22:32;19.10;65.00
37806;DHT22;25082;50.870;0.022;2023-03-23T10:25:15;19.10;65.00
37806;DHT22;25082;50.870;0.022;2023-03-23T10:27:46;19.10;65.10
37806;DHT22;25082;50.870;0.022;2023-03-23T10:30:53;19.10;65.20
37806;DHT22;25082;50.870;0.022;2023-03-23T10:33:30;19.10;65.10
37806;DHT22;25082;50.870;0.022;2023-03-23T10:38:43;19.10;65.10
37806;DHT22;25082;50.870;0.022;2023-03-23T10:41:18;19.10;65.00
37806;DHT22;25082;50.870;0.022;2023-03-23T10:43:45;19.20;65.00
37806;DHT22;25082;50.870;0.022;2023-03-23T10:49:19;19.20;65.00
37806;DHT22;25082;50.870;0.022;2023-03-23T10:54:51;19.20;65.00
37806;DHT22;25082;50.870;0.022;2023-03-23T10:57:26;19.20;65.00
37806;DHT22;25082;50.870;0.022;2023-03-23T11:00:04;19.20;64.90
37806;DHT22;25082;50.870;0.022;2023-03-23T11:02:39;19.30;65.00
37806;DHT22;25082;50.870;0.022;2023-03-23T11:05:24;19.30;65.00
37806;DHT22;25082;50.870;0.022;2023-03-23T11:07:55;19.30;65.00
37806;DHT22;25082;50.870;0.022;2023-03-23T11:10:27;19.30;64.90
37806;DHT22;25082;50.870;0.022;2023-03-23T11:12:57;19.30;64.90
37806;DHT22;25082;50.870;0.022;2023-03-23T11:15:32;19.30;64.90
37806;DHT22;25082;50.870;0.022;2023-03-23T11:18:10;19.30;64.90
37806;DHT22;25082;50.870;0.022;2023-03-23T11:20:43;19.40;64.90
37806;DHT22;25082;50.870;0.022;2023-03-23T11:23:10;19.40;64.90
37806;DHT22;25082;50.870;0.022;2023-03-23T11:28:29;19.40;64.90
37806;DHT22;25082;50.870;0.022;2023-03-23T11:30:58;19.40;64.90
37806;DHT22;25082;50.870;0.022;2023-03-23T11:33:25;19.40;64.90
37806;DHT22;25082;50.870;0.022;2023-03-23T11:35:54;19.40;64.90
37806;DHT22;25082;50.870;0.022;2023-03-23T11:38:22;19.50;64.90
37806;DHT22;25082;50.870;0.022;2023-03-23T11:40:51;19.50;64.90
37806;DHT22;25082;50.870;0.022;2023-03-23T11:43:21;19.50;64.90
37806;DHT22;25082;50.870;0.022;2023-03-23T11:48:49;19.40;64.90
37806;DHT22;25082;50.870;0.022;2023-03-23T11:51:21;19.50;64.90
37806;DHT22;25082;50.870;0.022;2023-03-23T11:56:36;19.50;64.90
37806;DHT22;25082;50.870;0.022;2023-03-23T11:59:05;19.50;64.90
37806;DHT22;25082;50.870;0.022;2023-03-23T12:01:51;19.40;64.80
37806;DHT22;25082;50.870;0.022;2023-03-23T12:12:11;19.40;64.80
37806;DHT22;25082;50.870;0.022;2023-03-23T12:17:27;19.50;64.80
37806;DHT22;25082;50.870;0.022;2023-03-23T12:31:24;19.60;64.70
37806;DHT22;25082;50.870;0.022;2023-03-23T12:44:50;19.60;64.80
37806;DHT22;25082;50.870;0.022;2023-03-23T12:47:37;19.50;64.70
37806;DHT22;25082;50.870;0.022;2023-03-23T12:50:35;19.50;64.70
37806;DHT22;25082;50.870;0.022;2023-03-23T12:53:11;19.50;64.70
37806;DHT22;25082;50.870;0.022;2023-03-23T12:55:44;19.50;64.60
37806;DHT22;25082;50.870;0.022;2023-03-23T12:58:23;19.50;64.60
37806;DHT22;25082;50.870;0.022;2023-03-23T13:01:10;19.50;64.60
37806;DHT22;25082;50.870;0.022;2023-03-23T13:03:56;19.50;64.50
37806;DHT22;25082;50.870;0.022;2023-03-23T13:06:33;19.50;64.50
37806;DHT22;25082;50.870;0.022;2023-03-23T13:11:39;19.60;64.50
37806;DHT22;25082;50.870;0.022;2023-03-23T13:20:01;19.60;64.80
37806;DHT22;25082;50.870;0.022;2023-03-23T13:22:42;19.60;64.90
37806;DHT22;25082;50.870;0.022;2023-03-23T13:25:23;19.70;65.00
37806;DHT22;25082;50.870;0.022;2023-03-23T13:27:59;19.70;64.90
37806;DHT22;25082;50.870;0.022;2023-03-23T13:30:26;19.70;64.90
37806;DHT22;25082;50.870;0.022;2023-03-23T13:33:05;19.70;64.80
37806;DHT22;25082;50.870;0.022;2023-03-23T13:35:38;19.70;64.70
37806;DHT22;25082;50.870;0.022;2023-03-23T13:38:26;19.70;64.80
37806;DHT22;25082;50.870;0.022;2023-03-23T13:40:54;19.80;64.90
37806;DHT22;25082;50.870;0.022;2023-03-23T13:43:29;19.70;64.90
37806;DHT22;25082;50.870;0.022;2023-03-23T13:45:55;19.70;64.80
37806;DHT22;25082;50.870;0.022;2023-03-23T13:48:40;19.70;64.30
37806;DHT22;25082;50.870;0.022;2023-03-23T13:53:49;19.70;64.20
37806;DHT22;25082;50.870;0.022;2023-03-23T13:56:20;19.70;64.30
37806;DHT22;25082;50.870;0.022;2023-03-23T13:58:52;19.70;64.40
37806;DHT22;25082;50.870;0.022;2023-03-23T14:01:32;19.70;64.50
37806;DHT22;25082;50.870;0.022;2023-03-23T14:04:03;19.70;64.50
37806;DHT22;25082;50.870;0.022;2023-03-23T14:06:34;19.70;64.10
37806;DHT22;25082;50.870;0.022;2023-03-23T14:09:34;19.60;62.80
37806;DHT22;25082;50.870;0.022;2023-03-23T14:12:19;19.50;63.40
37806;DHT22;25082;50.870;0.022;2023-03-23T14:14:50;19.50;63.80
37806;DHT22;25082;50.870;0.022;2023-03-23T14:17:21;19.50;64.00
37806;DHT22;25082;50.870;0.022;2023-03-23T14:19:50;19.60;64.30
37806;DHT22;25082;50.870;0.022;2023-03-23T14:22:32;19.50;64.20
37806;DHT22;25082;50.870;0.022;2023-03-23T14:25:18;19.50;64.30
37806;DHT22;25082;50.870;0.022;2023-03-23T14:27:46;19.50;64.30
37806;DHT22;25082;50.870;0.022;2023-03-23T14:30:35;19.60;64.40
37806;DHT22;25082;50.870;0.022;2023-03-23T14:33:06;19.60;64.40
37806;DHT22;25082;50.870;0.022;2023-03-23T14:35:37;19.60;64.40
37806;DHT22;25082;50.870;0.022;2023-03-23T14:38:04;19.60;64.40
37806;DHT22;25082;50.870;0.022;2023-03-23T14:40:31;19.60;64.60
37806;DHT22;25082;50.870;0.022;2023-03-23T14:42:57;19.60;64.50
37806;DHT22;25082;50.870;0.022;2023-03-23T14:45:25;19.60;64.40
37806;DHT22;25082;50.870;0.022;2023-03-23T14:47:57;19.60;64.50
37806;DHT22;25082;50.870;0.022;2023-03-23T14:50:38;19.60;64.50
37806;DHT22;25082;50.870;0.022;2023-03-23T14:56:00;19.50;64.40
37806;DHT22;25082;50.870;0.022;2023-03-23T14:58:28;19.60;64.60
37806;DHT22;25082;50.870;0.022;2023-03-23T15:01:04;19.50;64.50
37806;DHT22;25082;50.870;0.022;2023-03-23T15:03:37;19.60;64.50
37806;DHT22;25082;50.870;0.022;2023-03-23T15:06:05;19.50;64.50
37806;DHT22;25082;50.870;0.022;2023-03-23T15:08:33;19.60;64.60
37806;DHT22;25082;50.870;0.022;2023-03-23T15:13:46;19.60;64.50
37806;DHT22;25082;50.870;0.022;2023-03-23T15:21:35;19.50;64.60
37806;DHT22;25082;50.870;0.022;2023-03-23T15:24:03;19.50;64.60
37806;DHT22;25082;50.870;0.022;2023-03-23T15:26:44;19.50;64.50
37806;DHT22;25082;50.870;0.022;2023-03-23T15:29:11;19.60;64.60
37806;DHT22;25082;50.870;0.022;2023-03-23T15:31:52;19.60;64.60
37806;DHT22;25082;50.870;0.022;2023-03-23T15:34:30;19.60;64.60
37806;DHT22;25082;50.870;0.022;2023-03-23T15:37:06;19.60;64.60
37806;DHT22;25082;50.870;0.022;2023-03-23T15:39:41;19.60;64.60
37806;DHT22;25082;50.870;0.022;2023-03-23T15:47:48;19.60;64.60
37806;DHT22;25082;50.870;0.022;2023-03-23T15:52:41;19.50;64.60
37806;DHT22;25082;50.870;0.022;2023-03-23T15:55:28;19.50;64.70
37806;DHT22;25082;50.870;0.022;2023-03-23T15:57:56;19.60;64.70
37806;DHT22;25082;50.870;0.022;2023-03-23T16:00:24;19.50;64.70
37806;DHT22;25082;50.870;0.022;2023-03-23T16:02:57;19.60;64.90
37806;DHT22;25082;50.870;0.022;2023-03-23T16:05:24;19.60;64.80
37806;DHT22;25082;50.870;0.022;2023-03-23T16:07:50;19.50;64.80
37806;DHT22;25082;50.870;0.022;2023-03-23T16:10:18;19.60;64.90
37806;DHT22;25082;50.870;0.022;2023-03-23T16:12:45;19.60;64.90
37806;DHT22;25082;50.870;0.022;2023-03-23T16:15:11;19.50;64.80
37806;DHT22;25082;50.870;0.022;2023-03-23T16:17:37;19.60;64.90
37806;DHT22;25082;50.870;0.022;2023-03-23T16:20:13;19.60;64.90
37806;DHT22;25082;50.870;0.022;2023-03-23T16:22:39;19.50;64.80
37806;DHT22;25082;50.870;0.022;2023-03-23T16:25:06;19.50;64.80
37806;DHT22;25082;50.870;0.022;2023-03-23T16:27:32;19.50;64.80
37806;DHT22;25082;50.870;0.022;2023-03-23T16:29:58;19.60;64.90
37806;DHT22;25082;50.870;0.022;2023-03-23T16:32:25;19.50;64.80
37806;DHT22;25082;50.870;0.022;2023-03-23T16:34:51;19.60;64.90
37806;DHT22;25082;50.870;0.022;2023-03-23T16:37:17;19.60;64.90
37806;DHT22;25082;50.870;0.022;2023-03-23T16:39:42;19.60;64.80
37806;DHT22;25082;50.870;0.022;2023-03-23T16:42:08;19.60;64.80
37806;DHT22;25082;50.870;0.022;2023-03-23T16:44:34;19.60;64.80
37806;DHT22;25082;50.870;0.022;2023-03-23T16:46:59;19.60;64.80
37806;DHT22;25082;50.870;0.022;2023-03-23T16:49:25;19.60;64.80
37806;DHT22;25082;50.870;0.022;2023-03-23T16:51:51;19.60;64.80
37806;DHT22;25082;50.870;0.022;2023-03-23T16:54:17;19.60;64.80
37806;DHT22;25082;50.870;0.022;2023-03-23T16:56:42;19.60;64.70
37806;DHT22;25082;50.870;0.022;2023-03-23T16:59:11;19.60;64.80
37806;DHT22;25082;50.870;0.022;2023-03-23T17:01:37;19.60;64.70
37806;DHT22;25082;50.870;0.022;2023-03-23T17:04:03;19.60;64.80
37806;DHT22;25082;50.870;0.022;2023-03-23T17:06:29;19.60;64.70
37806;DHT22;25082;50.870;0.022;2023-03-23T17:08:55;19.60;64.80
37806;DHT22;25082;50.870;0.022;2023-03-23T17:11:21;19.60;64.70
37806;DHT22;25082;50.870;0.022;2023-03-23T17:13:47;19.50;64.60
37806;DHT22;25082;50.870;0.022;2023-03-23T17:16:13;19.60;64.70
37806;DHT22;25082;50.870;0.022;2023-03-23T17:18:39;19.50;64.70
37806;DHT22;25082;50.870;0.022;2023-03-23T17:21:04;19.60;64.70
37806;DHT22;25082;50.870;0.022;2023-03-23T17:23:31;19.60;64.80
37806;DHT22;25082;50.870;0.022;2023-03-23T17:25:57;19.60;64.90
37806;DHT22;25082;50.870;0.022;2023-03-23T17:28:22;19.60;64.90
37806;DHT22;25082;50.870;0.022;2023-03-23T17:30:50;19.50;64.90
37806;DHT22;25082;50.870;0.022;2023-03-23T17:33:16;19.60;64.90
37806;DHT22;25082;50.870;0.022;2023-03-23T17:35:45;19.60;64.90
37806;DHT22;25082;50.870;0.022;2023-03-23T17:38:11;19.60;64.80
37806;DHT22;25082;50.870;0.022;2023-03-23T17:40:36;19.50;64.70
37806;DHT22;25082;50.870;0.022;2023-03-23T17:43:02;19.60;64.80
37806;DHT22;25082;50.870;0.022;2023-03-23T17:45:28;19.60;64.80
37806;DHT22;25082;50.870;0.022;2023-03-23T17:47:54;19.60;64.90
37806;DHT22;25082;50.870;0.022;2023-03-23T17:50:20;19.60;64.80
37806;DHT22;25082;50.870;0.022;2023-03-23T17:52:46;19.60;64.90
37806;DHT22;25082;50.870;0.022;2023-03-23T17:55:14;19.60;64.90
37806;DHT22;25082;50.870;0.022;2023-03-23T17:57:40;19.60;64.90